map of HTMP home
HTMP - Airport
Location
City:  Mpanda, Rukwa, Tanzania
Name:Mpanda Airport
ICAO:HTMP

Details
Type:Airport (Aerodrome, Airfield)
Latitude:621'S (-6.350)
Longitude:3105'E (31.083)
Elevation:3520 ft (1073 m)
Variation:0.17W (WMM2015 magnetic declination)
0.06 annual change
Runways:unknown number
Longest:4757 ft (1450 m)

Time
Time Zone:UTC+3
Local Time:

Weather
METAR:HTMP 140600Z 09012KT 9999 FEW020 FEW022CB SCT080 25/16 Q1017

Related Locations
Nearby:
Farthest:CXI: 11792 mi / 18977 km
Christmas Island (Kiritimati) [Cassidy Intl], L, KI

Find:

   beyond  
but within

Other Information
Maps:
NOTAMs:
Links:
Sources:

  
  • flag of Tanzania
  

Sectional Chart

Flight Planning
at skyvector.com

Satellite Image

Google Maps Satellite view

 

Copyright © 2004-2018 Karl L. Swartz. All rights reserved.
The Great Circle Mapper name and logo are trademarks of the Great Circle Mapper.
All other trademarks mentioned herein belong to their respective owners.
Please see credits for attibutions and further copyright information.

  Follow gcmap on Facebook Follow gcmap on Twitter Follow gcmap on Google+ GCmap on LinkedIn

hCard Microformat

Geo Microformat